sensor_id;sensor_type;location;lat;lon;timestamp;P1;durP1;ratioP1;P2;durP2;ratioP2
60318;SDS011;46163;52.306;5.634;2023-02-15T00:00:10;2.22;;;2.00;;
60318;SDS011;46163;52.306;5.634;2023-02-15T00:02:36;2.10;;;1.90;;
60318;SDS011;46163;52.306;5.634;2023-02-15T00:05:01;2.20;;;2.00;;
60318;SDS011;46163;52.306;5.634;2023-02-15T00:07:27;2.05;;;1.90;;
60318;SDS011;46163;52.306;5.634;2023-02-15T00:09:52;2.20;;;2.00;;
60318;SDS011;46163;52.306;5.634;2023-02-15T00:12:18;2.20;;;2.00;;
60318;SDS011;46163;52.306;5.634;2023-02-15T00:14:43;2.20;;;2.00;;
60318;SDS011;46163;52.306;5.634;2023-02-15T00:17:09;2.15;;;1.95;;
60318;SDS011;46163;52.306;5.634;2023-02-15T00:19:37;2.35;;;2.00;;
60318;SDS011;46163;52.306;5.634;2023-02-15T00:22:02;2.10;;;1.90;;
60318;SDS011;46163;52.306;5.634;2023-02-15T00:24:27;2.15;;;1.95;;
60318;SDS011;46163;52.306;5.634;2023-02-15T00:26:53;2.30;;;2.00;;
60318;SDS011;46163;52.306;5.634;2023-02-15T00:29:19;2.25;;;2.05;;
60318;SDS011;46163;52.306;5.634;2023-02-15T00:31:45;1.88;;;1.77;;
60318;SDS011;46163;52.306;5.634;2023-02-15T00:34:12;1.85;;;1.75;;
60318;SDS011;46163;52.306;5.634;2023-02-15T00:36:46;2.30;;;2.10;;
60318;SDS011;46163;52.306;5.634;2023-02-15T00:39:12;2.38;;;2.17;;
60318;SDS011;46163;52.306;5.634;2023-02-15T00:41:39;2.58;;;2.03;;
60318;SDS011;46163;52.306;5.634;2023-02-15T00:44:07;2.05;;;1.80;;
60318;SDS011;46163;52.306;5.634;2023-02-15T00:46:33;2.20;;;2.00;;
60318;SDS011;46163;52.306;5.634;2023-02-15T00:48:59;2.25;;;1.90;;
60318;SDS011;46163;52.306;5.634;2023-02-15T00:51:25;2.83;;;2.17;;
60318;SDS011;46163;52.306;5.634;2023-02-15T00:53:51;2.22;;;1.90;;
60318;SDS011;46163;52.306;5.634;2023-02-15T00:56:16;1.85;;;1.75;;
60318;SDS011;46163;52.306;5.634;2023-02-15T00:58:42;2.15;;;2.00;;
60318;SDS011;46163;52.306;5.634;2023-02-15T01:01:12;2.20;;;2.00;;
60318;SDS011;46163;52.306;5.634;2023-02-15T01:03:40;1.73;;;1.63;;
60318;SDS011;46163;52.306;5.634;2023-02-15T01:06:09;2.10;;;1.80;;
60318;SDS011;46163;52.306;5.634;2023-02-15T01:08:35;1.92;;;1.80;;
60318;SDS011;46163;52.306;5.634;2023-02-15T01:11:04;1.92;;;1.77;;
60318;SDS011;46163;52.306;5.634;2023-02-15T01:13:35;2.17;;;1.98;;
60318;SDS011;46163;52.306;5.634;2023-02-15T01:16:01;1.90;;;1.80;;
60318;SDS011;46163;52.306;5.634;2023-02-15T01:18:28;1.83;;;1.63;;
60318;SDS011;46163;52.306;5.634;2023-02-15T01:20:53;1.83;;;1.73;;
60318;SDS011;46163;52.306;5.634;2023-02-15T01:23:19;3.47;;;2.00;;
60318;SDS011;46163;52.306;5.634;2023-02-15T01:25:45;2.42;;;1.90;;
60318;SDS011;46163;52.306;5.634;2023-02-15T01:28:10;1.75;;;1.65;;
60318;SDS011;46163;52.306;5.634;2023-02-15T01:30:36;1.80;;;1.70;;
60318;SDS011;46163;52.306;5.634;2023-02-15T01:33:01;2.45;;;2.15;;
60318;SDS011;46163;52.306;5.634;2023-02-15T01:35:27;1.75;;;1.65;;
60318;SDS011;46163;52.306;5.634;2023-02-15T01:37:54;2.10;;;1.90;;
60318;SDS011;46163;52.306;5.634;2023-02-15T01:40:20;2.40;;;2.10;;
60318;SDS011;46163;52.306;5.634;2023-02-15T01:42:49;1.80;;;1.70;;
60318;SDS011;46163;52.306;5.634;2023-02-15T01:47:45;2.22;;;1.80;;
60318;SDS011;46163;52.306;5.634;2023-02-15T01:50:34;1.83;;;1.73;;
60318;SDS011;46163;52.306;5.634;2023-02-15T01:53:05;2.33;;;1.70;;
60318;SDS011;46163;52.306;5.634;2023-02-15T01:55:40;1.92;;;1.73;;
60318;SDS011;46163;52.306;5.634;2023-02-15T01:58:12;1.92;;;1.83;;
60318;SDS011;46163;52.306;5.634;2023-02-15T02:00:39;1.80;;;1.70;;
60318;SDS011;46163;52.306;5.634;2023-02-15T02:03:05;1.92;;;1.73;;
60318;SDS011;46163;52.306;5.634;2023-02-15T02:05:31;2.10;;;1.90;;
60318;SDS011;46163;52.306;5.634;2023-02-15T02:07:58;1.75;;;1.65;;
60318;SDS011;46163;52.306;5.634;2023-02-15T02:10:26;1.85;;;1.75;;
60318;SDS011;46163;52.306;5.634;2023-02-15T02:12:55;1.70;;;1.60;;
60318;SDS011;46163;52.306;5.634;2023-02-15T02:15:47;2.10;;;1.90;;
60318;SDS011;46163;52.306;5.634;2023-02-15T02:18:29;1.70;;;1.60;;
60318;SDS011;46163;52.306;5.634;2023-02-15T02:33:25;1.70;;;1.60;;
60318;SDS011;46163;52.306;5.634;2023-02-15T02:46:59;1.60;;;1.50;;
60318;SDS011;46163;52.306;5.634;2023-02-15T02:49:32;1.80;;;1.70;;
60318;SDS011;46163;52.306;5.634;2023-02-15T02:52:31;1.70;;;1.60;;
60318;SDS011;46163;52.306;5.634;2023-02-15T02:55:08;2.10;;;1.90;;
60318;SDS011;46163;52.306;5.634;2023-02-15T02:58:16;1.80;;;1.70;;
60318;SDS011;46163;52.306;5.634;2023-02-15T03:00:55;1.73;;;1.63;;
60318;SDS011;46163;52.306;5.634;2023-02-15T03:03:27;1.58;;;1.48;;
60318;SDS011;46163;52.306;5.634;2023-02-15T03:05:59;1.80;;;1.70;;
60318;SDS011;46163;52.306;5.634;2023-02-15T03:08:31;1.75;;;1.65;;
60318;SDS011;46163;52.306;5.634;2023-02-15T03:11:02;1.90;;;1.80;;
60318;SDS011;46163;52.306;5.634;2023-02-15T03:13:28;1.75;;;1.65;;
60318;SDS011;46163;52.306;5.634;2023-02-15T03:15:55;1.60;;;1.50;;
60318;SDS011;46163;52.306;5.634;2023-02-15T03:18:44;1.80;;;1.70;;
60318;SDS011;46163;52.306;5.634;2023-02-15T03:21:19;1.98;;;1.73;;
60318;SDS011;46163;52.306;5.634;2023-02-15T03:23:53;1.70;;;1.60;;
60318;SDS011;46163;52.306;5.634;2023-02-15T03:26:26;1.65;;;1.55;;
60318;SDS011;46163;52.306;5.634;2023-02-15T03:28:55;1.60;;;1.50;;
60318;SDS011;46163;52.306;5.634;2023-02-15T03:31:24;1.70;;;1.60;;
60318;SDS011;46163;52.306;5.634;2023-02-15T03:34:03;1.70;;;1.60;;
60318;SDS011;46163;52.306;5.634;2023-02-15T03:36:45;1.80;;;1.70;;
60318;SDS011;46163;52.306;5.634;2023-02-15T03:44:33;1.42;;;1.33;;
60318;SDS011;46163;52.306;5.634;2023-02-15T03:47:19;2.60;;;1.67;;
60318;SDS011;46163;52.306;5.634;2023-02-15T03:53:01;1.90;;;1.63;;
60318;SDS011;46163;52.306;5.634;2023-02-15T03:55:31;1.63;;;1.52;;
60318;SDS011;46163;52.306;5.634;2023-02-15T03:57:58;1.60;;;1.50;;
60318;SDS011;46163;52.306;5.634;2023-02-15T04:00:45;1.52;;;1.42;;
60318;SDS011;46163;52.306;5.634;2023-02-15T04:03:40;1.60;;;1.50;;
60318;SDS011;46163;52.306;5.634;2023-02-15T04:06:10;1.60;;;1.50;;
60318;SDS011;46163;52.306;5.634;2023-02-15T04:11:22;1.33;;;1.27;;
60318;SDS011;46163;52.306;5.634;2023-02-15T04:13:48;1.42;;;1.33;;
60318;SDS011;46163;52.306;5.634;2023-02-15T04:16:21;1.75;;;1.65;;
60318;SDS011;46163;52.306;5.634;2023-02-15T04:18:47;1.52;;;1.42;;
60318;SDS011;46163;52.306;5.634;2023-02-15T04:21:31;1.40;;;1.30;;
60318;SDS011;46163;52.306;5.634;2023-02-15T04:24:16;2.25;;;1.25;;
60318;SDS011;46163;52.306;5.634;2023-02-15T04:27:00;1.48;;;1.38;;
60318;SDS011;46163;52.306;5.634;2023-02-15T04:29:27;1.35;;;1.30;;
60318;SDS011;46163;52.306;5.634;2023-02-15T04:31:54;1.45;;;1.35;;
60318;SDS011;46163;52.306;5.634;2023-02-15T04:34:21;1.60;;;1.50;;
60318;SDS011;46163;52.306;5.634;2023-02-15T04:36:46;1.50;;;1.40;;
60318;SDS011;46163;52.306;5.634;2023-02-15T04:39:15;1.48;;;1.38;;
60318;SDS011;46163;52.306;5.634;2023-02-15T04:41:42;1.40;;;1.40;;
60318;SDS011;46163;52.306;5.634;2023-02-15T04:44:08;1.67;;;1.50;;
60318;SDS011;46163;52.306;5.634;2023-02-15T04:46:34;1.50;;;1.40;;
60318;SDS011;46163;52.306;5.634;2023-02-15T04:49:00;1.30;;;1.30;;
60318;SDS011;46163;52.306;5.634;2023-02-15T04:51:25;1.20;;;1.20;;
60318;SDS011;46163;52.306;5.634;2023-02-15T04:53:51;1.25;;;1.23;;
60318;SDS011;46163;52.306;5.634;2023-02-15T04:56:18;1.25;;;1.17;;
60318;SDS011;46163;52.306;5.634;2023-02-15T04:58:44;1.23;;;1.23;;
60318;SDS011;46163;52.306;5.634;2023-02-15T05:01:09;1.27;;;1.17;;
60318;SDS011;46163;52.306;5.634;2023-02-15T05:03:36;1.40;;;1.30;;
60318;SDS011;46163;52.306;5.634;2023-02-15T05:06:02;1.20;;;1.17;;
60318;SDS011;46163;52.306;5.634;2023-02-15T05:08:28;1.63;;;1.38;;
60318;SDS011;46163;52.306;5.634;2023-02-15T05:10:53;1.20;;;1.15;;
60318;SDS011;46163;52.306;5.634;2023-02-15T05:13:19;1.50;;;1.40;;
60318;SDS011;46163;52.306;5.634;2023-02-15T05:15:48;1.10;;;1.10;;
60318;SDS011;46163;52.306;5.634;2023-02-15T05:18:17;1.50;;;1.40;;
60318;SDS011;46163;52.306;5.634;2023-02-15T05:20:44;1.30;;;1.30;;
60318;SDS011;46163;52.306;5.634;2023-02-15T05:23:09;1.27;;;1.27;;
60318;SDS011;46163;52.306;5.634;2023-02-15T05:25:35;1.10;;;1.10;;
60318;SDS011;46163;52.306;5.634;2023-02-15T05:28:19;1.25;;;1.25;;
60318;SDS011;46163;52.306;5.634;2023-02-15T05:30:49;1.17;;;1.17;;
60318;SDS011;46163;52.306;5.634;2023-02-15T05:33:24;1.50;;;1.40;;
60318;SDS011;46163;52.306;5.634;2023-02-15T05:35:49;1.40;;;1.30;;
60318;SDS011;46163;52.306;5.634;2023-02-15T05:38:16;1.20;;;1.20;;
60318;SDS011;46163;52.306;5.634;2023-02-15T05:40:41;1.25;;;1.15;;
60318;SDS011;46163;52.306;5.634;2023-02-15T05:43:07;1.35;;;1.25;;
60318;SDS011;46163;52.306;5.634;2023-02-15T05:45:32;1.10;;;1.10;;
60318;SDS011;46163;52.306;5.634;2023-02-15T05:47:58;1.13;;;1.10;;
60318;SDS011;46163;52.306;5.634;2023-02-15T05:50:26;1.23;;;1.20;;
60318;SDS011;46163;52.306;5.634;2023-02-15T05:52:51;1.25;;;1.25;;
60318;SDS011;46163;52.306;5.634;2023-02-15T05:55:17;1.40;;;1.30;;
60318;SDS011;46163;52.306;5.634;2023-02-15T05:57:43;1.05;;;1.05;;
60318;SDS011;46163;52.306;5.634;2023-02-15T06:00:09;1.20;;;1.20;;
60318;SDS011;46163;52.306;5.634;2023-02-15T06:02:36;1.20;;;1.20;;
60318;SDS011;46163;52.306;5.634;2023-02-15T06:05:02;1.17;;;1.17;;
60318;SDS011;46163;52.306;5.634;2023-02-15T06:07:29;1.00;;;1.00;;
60318;SDS011;46163;52.306;5.634;2023-02-15T06:09:54;1.67;;;1.27;;
60318;SDS011;46163;52.306;5.634;2023-02-15T06:12:20;1.17;;;1.05;;
60318;SDS011;46163;52.306;5.634;2023-02-15T06:14:45;0.95;;;0.95;;
60318;SDS011;46163;52.306;5.634;2023-02-15T06:17:11;1.10;;;1.10;;
60318;SDS011;46163;52.306;5.634;2023-02-15T06:19:36;1.40;;;1.30;;
60318;SDS011;46163;52.306;5.634;2023-02-15T06:22:02;1.20;;;1.20;;
60318;SDS011;46163;52.306;5.634;2023-02-15T06:24:27;1.00;;;1.00;;
60318;SDS011;46163;52.306;5.634;2023-02-15T06:26:53;1.40;;;1.30;;
60318;SDS011;46163;52.306;5.634;2023-02-15T06:29:18;1.35;;;1.30;;
60318;SDS011;46163;52.306;5.634;2023-02-15T06:31:44;1.25;;;1.25;;
60318;SDS011;46163;52.306;5.634;2023-02-15T06:34:09;1.15;;;1.15;;
60318;SDS011;46163;52.306;5.634;2023-02-15T06:36:35;1.20;;;1.20;;
60318;SDS011;46163;52.306;5.634;2023-02-15T06:39:01;1.23;;;1.20;;
60318;SDS011;46163;52.306;5.634;2023-02-15T06:41:28;1.40;;;1.30;;
60318;SDS011;46163;52.306;5.634;2023-02-15T06:43:53;1.38;;;1.30;;
60318;SDS011;46163;52.306;5.634;2023-02-15T06:46:19;1.50;;;1.40;;
60318;SDS011;46163;52.306;5.634;2023-02-15T06:48:44;1.67;;;1.50;;
60318;SDS011;46163;52.306;5.634;2023-02-15T06:51:10;1.80;;;1.48;;
60318;SDS011;46163;52.306;5.634;2023-02-15T06:53:35;1.50;;;1.40;;
60318;SDS011;46163;52.306;5.634;2023-02-15T06:56:05;1.50;;;1.40;;
60318;SDS011;46163;52.306;5.634;2023-02-15T06:58:37;1.58;;;1.48;;
60318;SDS011;46163;52.306;5.634;2023-02-15T07:01:03;1.52;;;1.42;;
60318;SDS011;46163;52.306;5.634;2023-02-15T07:03:29;2.15;;;1.38;;
60318;SDS011;46163;52.306;5.634;2023-02-15T07:05:56;1.70;;;1.60;;
60318;SDS011;46163;52.306;5.634;2023-02-15T07:08:23;1.73;;;1.63;;
60318;SDS011;46163;52.306;5.634;2023-02-15T07:10:49;2.67;;;1.60;;
60318;SDS011;46163;52.306;5.634;2023-02-15T07:13:15;2.15;;;1.40;;
60318;SDS011;46163;52.306;5.634;2023-02-15T07:15:41;2.03;;;1.70;;
60318;SDS011;46163;52.306;5.634;2023-02-15T07:18:07;1.83;;;1.73;;
60318;SDS011;46163;52.306;5.634;2023-02-15T07:20:34;2.13;;;1.80;;
60318;SDS011;46163;52.306;5.634;2023-02-15T07:23:00;1.80;;;1.70;;
60318;SDS011;46163;52.306;5.634;2023-02-15T07:25:26;1.90;;;1.65;;
60318;SDS011;46163;52.306;5.634;2023-02-15T07:27:59;1.80;;;1.70;;
60318;SDS011;46163;52.306;5.634;2023-02-15T07:30:26;1.80;;;1.70;;
60318;SDS011;46163;52.306;5.634;2023-02-15T07:32:59;1.80;;;1.70;;
60318;SDS011;46163;52.306;5.634;2023-02-15T07:35:50;1.90;;;1.67;;
60318;SDS011;46163;52.306;5.634;2023-02-15T07:38:17;1.50;;;1.40;;
60318;SDS011;46163;52.306;5.634;2023-02-15T07:40:43;2.10;;;1.65;;
60318;SDS011;46163;52.306;5.634;2023-02-15T07:43:09;1.83;;;1.73;;
60318;SDS011;46163;52.306;5.634;2023-02-15T07:45:35;1.77;;;1.67;;
60318;SDS011;46163;52.306;5.634;2023-02-15T07:48:01;1.65;;;1.55;;
60318;SDS011;46163;52.306;5.634;2023-02-15T07:50:27;2.28;;;1.48;;
60318;SDS011;46163;52.306;5.634;2023-02-15T07:52:55;2.08;;;1.50;;
60318;SDS011;46163;52.306;5.634;2023-02-15T07:55:24;1.70;;;1.60;;
60318;SDS011;46163;52.306;5.634;2023-02-15T07:57:50;1.60;;;1.50;;
60318;SDS011;46163;52.306;5.634;2023-02-15T08:00:17;1.70;;;1.60;;
60318;SDS011;46163;52.306;5.634;2023-02-15T08:02:48;1.30;;;1.30;;
60318;SDS011;46163;52.306;5.634;2023-02-15T08:05:34;1.67;;;1.58;;
60318;SDS011;46163;52.306;5.634;2023-02-15T08:08:00;1.67;;;1.58;;
60318;SDS011;46163;52.306;5.634;2023-02-15T08:10:25;1.95;;;1.40;;
60318;SDS011;46163;52.306;5.634;2023-02-15T08:13:11;1.77;;;1.58;;
60318;SDS011;46163;52.306;5.634;2023-02-15T08:15:36;1.55;;;1.45;;
60318;SDS011;46163;52.306;5.634;2023-02-15T08:18:01;1.90;;;1.40;;
60318;SDS011;46163;52.306;5.634;2023-02-15T08:20:27;1.58;;;1.40;;
60318;SDS011;46163;52.306;5.634;2023-02-15T08:22:52;1.48;;;1.38;;
60318;SDS011;46163;52.306;5.634;2023-02-15T08:25:18;1.40;;;1.33;;
60318;SDS011;46163;52.306;5.634;2023-02-15T08:27:44;1.60;;;1.40;;
60318;SDS011;46163;52.306;5.634;2023-02-15T08:30:09;1.60;;;1.50;;
60318;SDS011;46163;52.306;5.634;2023-02-15T08:32:35;2.17;;;1.67;;
60318;SDS011;46163;52.306;5.634;2023-02-15T08:35:00;1.67;;;1.48;;
60318;SDS011;46163;52.306;5.634;2023-02-15T08:37:26;1.40;;;1.30;;
60318;SDS011;46163;52.306;5.634;2023-02-15T08:39:51;1.65;;;1.55;;
60318;SDS011;46163;52.306;5.634;2023-02-15T08:42:18;1.63;;;1.50;;
60318;SDS011;46163;52.306;5.634;2023-02-15T08:44:46;1.60;;;1.50;;
60318;SDS011;46163;52.306;5.634;2023-02-15T08:47:11;1.35;;;1.30;;
60318;SDS011;46163;52.306;5.634;2023-02-15T08:49:37;1.60;;;1.50;;
60318;SDS011;46163;52.306;5.634;2023-02-15T08:52:02;1.58;;;1.48;;
60318;SDS011;46163;52.306;5.634;2023-02-15T08:54:28;1.50;;;1.40;;
60318;SDS011;46163;52.306;5.634;2023-02-15T08:56:54;1.48;;;1.38;;
60318;SDS011;46163;52.306;5.634;2023-02-15T08:59:20;1.70;;;1.60;;
60318;SDS011;46163;52.306;5.634;2023-02-15T09:01:47;1.20;;;1.20;;
60318;SDS011;46163;52.306;5.634;2023-02-15T09:04:15;1.80;;;1.70;;
60318;SDS011;46163;52.306;5.634;2023-02-15T09:06:41;1.55;;;1.40;;
60318;SDS011;46163;52.306;5.634;2023-02-15T09:11:36;1.58;;;1.48;;
60318;SDS011;46163;52.306;5.634;2023-02-15T09:14:04;1.70;;;1.60;;
60318;SDS011;46163;52.306;5.634;2023-02-15T09:16:33;1.58;;;1.48;;
60318;SDS011;46163;52.306;5.634;2023-02-15T09:19:01;1.50;;;1.40;;
60318;SDS011;46163;52.306;5.634;2023-02-15T09:21:27;1.77;;;1.40;;
60318;SDS011;46163;52.306;5.634;2023-02-15T09:23:57;1.30;;;1.30;;
60318;SDS011;46163;52.306;5.634;2023-02-15T09:26:24;1.55;;;1.45;;
60318;SDS011;46163;52.306;5.634;2023-02-15T09:28:52;2.80;;;1.60;;
60318;SDS011;46163;52.306;5.634;2023-02-15T09:31:24;1.70;;;1.60;;
60318;SDS011;46163;52.306;5.634;2023-02-15T09:33:52;2.00;;;1.50;;
60318;SDS011;46163;52.306;5.634;2023-02-15T09:36:25;1.70;;;1.60;;
60318;SDS011;46163;52.306;5.634;2023-02-15T09:39:04;1.90;;;1.27;;
60318;SDS011;46163;52.306;5.634;2023-02-15T09:47:38;1.55;;;1.45;;
60318;SDS011;46163;52.306;5.634;2023-02-15T09:55:11;1.50;;;1.40;;
60318;SDS011;46163;52.306;5.634;2023-02-15T10:06:05;1.65;;;1.55;;
60318;SDS011;46163;52.306;5.634;2023-02-15T10:14:18;1.52;;;1.42;;
60318;SDS011;46163;52.306;5.634;2023-02-15T10:25:19;1.73;;;1.52;;
60318;SDS011;46163;52.306;5.634;2023-02-15T10:28:04;1.40;;;1.30;;
60318;SDS011;46163;52.306;5.634;2023-02-15T10:30:41;1.70;;;1.60;;
60318;SDS011;46163;52.306;5.634;2023-02-15T10:33:25;1.60;;;1.50;;
60318;SDS011;46163;52.306;5.634;2023-02-15T10:42:10;1.70;;;1.60;;
60318;SDS011;46163;52.306;5.634;2023-02-15T11:07:06;1.70;;;1.60;;
60318;SDS011;46163;52.306;5.634;2023-02-15T11:09:40;1.70;;;1.60;;
60318;SDS011;46163;52.306;5.634;2023-02-15T11:12:11;1.65;;;1.55;;
60318;SDS011;46163;52.306;5.634;2023-02-15T11:14:42;2.47;;;1.77;;
60318;SDS011;46163;52.306;5.634;2023-02-15T11:17:14;2.45;;;1.60;;
60318;SDS011;46163;52.306;5.634;2023-02-15T11:19:58;1.83;;;1.73;;
60318;SDS011;46163;52.306;5.634;2023-02-15T11:22:33;1.60;;;1.50;;
60318;SDS011;46163;52.306;5.634;2023-02-15T11:24:58;2.25;;;1.77;;
60318;SDS011;46163;52.306;5.634;2023-02-15T11:27:28;1.65;;;1.55;;
60318;SDS011;46163;52.306;5.634;2023-02-15T11:30:04;1.48;;;1.40;;
60318;SDS011;46163;52.306;5.634;2023-02-15T11:32:37;2.03;;;1.80;;
60318;SDS011;46163;52.306;5.634;2023-02-15T11:37:40;1.80;;;1.70;;
60318;SDS011;46163;52.306;5.634;2023-02-15T11:40:22;2.08;;;1.42;;
60318;SDS011;46163;52.306;5.634;2023-02-15T11:42:56;2.13;;;1.60;;
60318;SDS011;46163;52.306;5.634;2023-02-15T11:47:54;1.75;;;1.48;;
60318;SDS011;46163;52.306;5.634;2023-02-15T11:50:22;1.65;;;1.55;;
60318;SDS011;46163;52.306;5.634;2023-02-15T11:52:51;1.70;;;1.60;;
60318;SDS011;46163;52.306;5.634;2023-02-15T11:55:19;1.63;;;1.52;;
60318;SDS011;46163;52.306;5.634;2023-02-15T11:57:50;1.77;;;1.60;;
60318;SDS011;46163;52.306;5.634;2023-02-15T12:00:23;1.65;;;1.55;;
60318;SDS011;46163;52.306;5.634;2023-02-15T12:02:56;2.00;;;1.70;;
60318;SDS011;46163;52.306;5.634;2023-02-15T12:05:23;1.80;;;1.70;;
60318;SDS011;46163;52.306;5.634;2023-02-15T12:07:55;2.88;;;1.80;;
60318;SDS011;46163;52.306;5.634;2023-02-15T12:10:29;2.00;;;1.80;;
60318;SDS011;46163;52.306;5.634;2023-02-15T12:13:14;1.80;;;1.70;;
60318;SDS011;46163;52.306;5.634;2023-02-15T12:15:43;2.40;;;1.70;;
60318;SDS011;46163;52.306;5.634;2023-02-15T12:18:45;2.47;;;1.80;;
60318;SDS011;46163;52.306;5.634;2023-02-15T12:21:16;2.28;;;1.95;;
60318;SDS011;46163;52.306;5.634;2023-02-15T12:23:54;2.70;;;2.10;;
60318;SDS011;46163;52.306;5.634;2023-02-15T12:26:34;3.20;;;2.63;;
60318;SDS011;46163;52.306;5.634;2023-02-15T12:29:01;2.22;;;2.00;;
60318;SDS011;46163;52.306;5.634;2023-02-15T12:31:51;2.85;;;2.15;;
60318;SDS011;46163;52.306;5.634;2023-02-15T12:36:51;2.28;;;2.08;;
60318;SDS011;46163;52.306;5.634;2023-02-15T12:39:25;2.42;;;2.22;;
60318;SDS011;46163;52.306;5.634;2023-02-15T12:44:21;4.43;;;2.55;;
60318;SDS011;46163;52.306;5.634;2023-02-15T12:47:05;2.90;;;2.30;;
60318;SDS011;46163;52.306;5.634;2023-02-15T12:49:31;3.05;;;2.60;;
60318;SDS011;46163;52.306;5.634;2023-02-15T12:52:02;2.75;;;2.40;;
60318;SDS011;46163;52.306;5.634;2023-02-15T12:54:50;3.20;;;2.47;;
60318;SDS011;46163;52.306;5.634;2023-02-15T12:57:32;3.00;;;2.50;;
60318;SDS011;46163;52.306;5.634;2023-02-15T13:00:03;3.28;;;2.40;;
60318;SDS011;46163;52.306;5.634;2023-02-15T13:02:36;2.20;;;2.00;;
60318;SDS011;46163;52.306;5.634;2023-02-15T13:08:08;2.55;;;2.30;;
60318;SDS011;46163;52.306;5.634;2023-02-15T13:10:59;3.13;;;2.40;;
60318;SDS011;46163;52.306;5.634;2023-02-15T13:13:29;3.25;;;2.50;;
60318;SDS011;46163;52.306;5.634;2023-02-15T13:16:12;2.60;;;2.30;;
60318;SDS011;46163;52.306;5.634;2023-02-15T13:18:44;2.88;;;2.30;;
60318;SDS011;46163;52.306;5.634;2023-02-15T13:21:12;3.08;;;2.00;;
60318;SDS011;46163;52.306;5.634;2023-02-15T13:23:39;2.35;;;2.15;;
60318;SDS011;46163;52.306;5.634;2023-02-15T13:26:13;2.30;;;2.10;;
60318;SDS011;46163;52.306;5.634;2023-02-15T13:28:47;2.80;;;1.90;;
60318;SDS011;46163;52.306;5.634;2023-02-15T13:31:20;2.25;;;2.00;;
60318;SDS011;46163;52.306;5.634;2023-02-15T13:34:22;2.45;;;2.13;;
60318;SDS011;46163;52.306;5.634;2023-02-15T13:37:18;2.30;;;1.90;;
60318;SDS011;46163;52.306;5.634;2023-02-15T13:42:39;2.20;;;1.98;;
60318;SDS011;46163;52.306;5.634;2023-02-15T13:47:59;2.38;;;2.17;;
60318;SDS011;46163;52.306;5.634;2023-02-15T13:56:35;3.03;;;1.92;;
60318;SDS011;46163;52.306;5.634;2023-02-15T14:21:07;2.90;;;2.37;;
60318;SDS011;46163;52.306;5.634;2023-02-15T14:29:32;2.42;;;2.10;;
60318;SDS011;46163;52.306;5.634;2023-02-15T14:32:46;3.40;;;2.00;;
60318;SDS011;46163;52.306;5.634;2023-02-15T14:35:14;2.95;;;1.90;;
60318;SDS011;46163;52.306;5.634;2023-02-15T14:43:47;4.93;;;2.47;;
60318;SDS011;46163;52.306;5.634;2023-02-15T14:48:49;2.65;;;2.15;;
60318;SDS011;46163;52.306;5.634;2023-02-15T14:56:44;4.78;;;2.67;;
60318;SDS011;46163;52.306;5.634;2023-02-15T15:01:36;4.75;;;2.55;;
60318;SDS011;46163;52.306;5.634;2023-02-15T15:04:08;3.50;;;2.47;;
60318;SDS011;46163;52.306;5.634;2023-02-15T15:06:40;4.68;;;2.55;;
60318;SDS011;46163;52.306;5.634;2023-02-15T15:11:54;3.55;;;2.55;;
60318;SDS011;46163;52.306;5.634;2023-02-15T15:14:38;3.63;;;2.53;;
60318;SDS011;46163;52.306;5.634;2023-02-15T15:17:08;3.83;;;2.63;;
60318;SDS011;46163;52.306;5.634;2023-02-15T15:22:23;3.20;;;2.35;;
60318;SDS011;46163;52.306;5.634;2023-02-15T15:24:52;3.00;;;1.92;;
60318;SDS011;46163;52.306;5.634;2023-02-15T15:49:36;2.22;;;2.03;;
60318;SDS011;46163;52.306;5.634;2023-02-15T15:52:13;2.20;;;2.00;;
60318;SDS011;46163;52.306;5.634;2023-02-15T15:54:41;2.72;;;2.20;;
60318;SDS011;46163;52.306;5.634;2023-02-15T15:57:14;2.73;;;2.23;;
60318;SDS011;46163;52.306;5.634;2023-02-15T16:00:03;2.22;;;2.00;;
60318;SDS011;46163;52.306;5.634;2023-02-15T16:02:50;3.15;;;2.67;;
60318;SDS011;46163;52.306;5.634;2023-02-15T16:05:16;3.35;;;2.97;;
60318;SDS011;46163;52.306;5.634;2023-02-15T16:07:41;4.18;;;3.78;;
60318;SDS011;46163;52.306;5.634;2023-02-15T16:10:16;3.33;;;3.03;;
60318;SDS011;46163;52.306;5.634;2023-02-15T16:12:45;4.30;;;3.70;;
60318;SDS011;46163;52.306;5.634;2023-02-15T16:15:22;4.70;;;3.83;;
60318;SDS011;46163;52.306;5.634;2023-02-15T16:17:54;3.70;;;3.20;;
60318;SDS011;46163;52.306;5.634;2023-02-15T16:20:26;4.75;;;3.78;;
60318;SDS011;46163;52.306;5.634;2023-02-15T16:26:06;6.72;;;4.25;;
60318;SDS011;46163;52.306;5.634;2023-02-15T16:28:47;5.30;;;3.95;;
60318;SDS011;46163;52.306;5.634;2023-02-15T16:31:14;6.30;;;4.10;;
60318;SDS011;46163;52.306;5.634;2023-02-15T16:33:41;6.00;;;4.60;;
60318;SDS011;46163;52.306;5.634;2023-02-15T16:36:11;5.78;;;4.60;;
60318;SDS011;46163;52.306;5.634;2023-02-15T16:41:13;6.63;;;4.95;;
60318;SDS011;46163;52.306;5.634;2023-02-15T16:43:43;6.43;;;4.80;;
60318;SDS011;46163;52.306;5.634;2023-02-15T16:46:18;3.90;;;3.40;;
60318;SDS011;46163;52.306;5.634;2023-02-15T16:48:49;4.57;;;3.60;;
60318;SDS011;46163;52.306;5.634;2023-02-15T16:51:21;4.80;;;3.55;;
60318;SDS011;46163;52.306;5.634;2023-02-15T16:53:52;4.45;;;3.30;;
60318;SDS011;46163;52.306;5.634;2023-02-15T16:56:23;6.18;;;3.47;;
60318;SDS011;46163;52.306;5.634;2023-02-15T16:58:51;5.63;;;3.85;;
60318;SDS011;46163;52.306;5.634;2023-02-15T17:01:20;4.05;;;3.35;;
60318;SDS011;46163;52.306;5.634;2023-02-15T17:04:10;4.10;;;3.30;;
60318;SDS011;46163;52.306;5.634;2023-02-15T17:06:37;4.55;;;3.38;;
60318;SDS011;46163;52.306;5.634;2023-02-15T17:09:12;3.33;;;3.00;;
60318;SDS011;46163;52.306;5.634;2023-02-15T17:11:43;5.65;;;3.33;;
60318;SDS011;46163;52.306;5.634;2023-02-15T17:21:55;4.53;;;3.58;;
60318;SDS011;46163;52.306;5.634;2023-02-15T17:24:37;3.50;;;2.95;;
60318;SDS011;46163;52.306;5.634;2023-02-15T17:27:49;4.13;;;3.42;;
60318;SDS011;46163;52.306;5.634;2023-02-15T17:30:04;3.60;;;3.08;;
60318;SDS011;46163;52.306;5.634;2023-02-15T17:32:52;5.03;;;3.30;;
60318;SDS011;46163;52.306;5.634;2023-02-15T17:35:20;4.10;;;2.95;;
60318;SDS011;46163;52.306;5.634;2023-02-15T17:38:37;3.92;;;3.20;;
60318;SDS011;46163;52.306;5.634;2023-02-15T17:40:43;4.40;;;2.95;;
60318;SDS011;46163;52.306;5.634;2023-02-15T17:43:09;3.75;;;2.97;;
60318;SDS011;46163;52.306;5.634;2023-02-15T17:45:37;4.07;;;2.78;;
60318;SDS011;46163;52.306;5.634;2023-02-15T17:48:09;4.50;;;2.90;;
60318;SDS011;46163;52.306;5.634;2023-02-15T17:50:43;4.50;;;2.65;;
60318;SDS011;46163;52.306;5.634;2023-02-15T17:53:16;4.75;;;2.60;;
60318;SDS011;46163;52.306;5.634;2023-02-15T17:55:43;5.72;;;2.75;;
60318;SDS011;46163;52.306;5.634;2023-02-15T17:58:10;3.22;;;2.65;;
60318;SDS011;46163;52.306;5.634;2023-02-15T18:00:41;3.58;;;2.60;;
60318;SDS011;46163;52.306;5.634;2023-02-15T18:03:49;3.30;;;2.50;;
60318;SDS011;46163;52.306;5.634;2023-02-15T18:06:33;4.53;;;2.60;;
60318;SDS011;46163;52.306;5.634;2023-02-15T18:09:20;3.45;;;2.60;;
60318;SDS011;46163;52.306;5.634;2023-02-15T18:12:22;2.75;;;2.50;;
60318;SDS011;46163;52.306;5.634;2023-02-15T18:14:54;4.45;;;2.45;;
60318;SDS011;46163;52.306;5.634;2023-02-15T18:17:42;3.05;;;2.40;;
60318;SDS011;46163;52.306;5.634;2023-02-15T18:20:25;2.58;;;2.35;;
60318;SDS011;46163;52.306;5.634;2023-02-15T18:22:56;2.90;;;2.50;;
60318;SDS011;46163;52.306;5.634;2023-02-15T18:25:22;2.30;;;2.10;;
60318;SDS011;46163;52.306;5.634;2023-02-15T18:27:49;2.57;;;2.20;;
60318;SDS011;46163;52.306;5.634;2023-02-15T18:30:16;2.40;;;1.95;;
60318;SDS011;46163;52.306;5.634;2023-02-15T18:32:43;2.58;;;2.20;;
60318;SDS011;46163;52.306;5.634;2023-02-15T18:35:14;2.53;;;2.33;;
60318;SDS011;46163;52.306;5.634;2023-02-15T18:37:41;2.97;;;2.53;;
60318;SDS011;46163;52.306;5.634;2023-02-15T18:40:18;2.70;;;2.25;;
60318;SDS011;46163;52.306;5.634;2023-02-15T18:42:45;2.97;;;2.50;;